Time;durP1;ratioP1;P1;durP2;ratioP2;P2;SDS_P1;SDS_P2;PMS_P1;PMS_P2;Temp;Humidity;BMP_temperature;BMP_pressure;BME280_temperature;BME280_humidity;BME280_pressure;Samples;Min_cycle;Max_cycle;Signal;HPM_P1;HPM_P2
2022/11/16 00:01:15;;;;;;;;;3.00;1.00;;;;;12.59;71.42;99569.66;5056267;28;45115;-70
2022/11/16 00:03:41;;;;;;;;;5.00;2.00;;;;;12.59;71.38;99572.34;5037421;28;45339;-70
2022/11/16 00:06:08;;;;;;;;;2.00;1.67;;;;;12.57;71.25;99569.66;5055952;28;45072;-69
2022/11/16 00:08:37;;;;;;;;;3.00;2.00;;;;;12.49;71.87;99558.09;5049880;28;45919;-71
2022/11/16 00:11:11;;;;;;;;;4.67;2.00;;;;;12.39;70.70;99545.56;5034996;28;45145;-70
2022/11/16 00:13:38;;;;;;;;;2.00;1.00;;;;;12.47;71.68;99570.56;5035742;28;45142;-70
2022/11/16 00:16:05;;;;;;;;;5.67;5.33;;;;;12.35;71.65;99547.38;5052122;28;45151;-68
2022/11/16 00:18:31;;;;;;;;;7.00;1.00;;;;;12.49;72.22;99568.81;5052442;28;46347;-70
2022/11/16 00:20:56;;;;;;;;;2.67;0.67;;;;;12.42;71.66;99569.69;5064967;28;45075;-71
2022/11/16 00:23:22;;;;;;;;;5.00;2.33;;;;;12.33;71.80;99562.56;5058727;28;45280;-69
2022/11/16 00:25:48;;;;;;;;;0.00;0.00;;;;;12.31;72.21;99567.03;5073087;28;45390;-70
2022/11/16 00:28:14;;;;;;;;;2.67;2.00;;;;;12.21;72.09;99550.06;5061736;28;45290;-70
2022/11/16 00:30:39;;;;;;;;;3.33;2.00;;;;;12.28;72.16;99562.53;5056647;28;45140;-70
2022/11/16 00:33:07;;;;;;;;;1.00;1.00;;;;;12.32;72.44;99568.78;5057805;28;45089;-69
2022/11/16 00:35:37;;;;;;;;;4.00;1.00;;;;;12.25;72.74;99551.84;5060932;28;45183;-70
2022/11/16 00:38:02;;;;;;;;;2.00;2.00;;;;;12.10;72.29;99539.31;5070589;28;45632;-68
2022/11/16 00:40:28;;;;;;;;;1.67;1.00;;;;;12.10;72.75;99542.00;5076773;27;47426;-71
2022/11/16 00:42:54;;;;;;;;;3.33;1.00;;;;;12.22;72.64;99572.38;5039295;28;44875;-70
2022/11/16 00:45:20;;;;;;;;;3.67;3.00;;;;;12.15;72.38;99558.09;5030627;28;45737;-71
2022/11/16 00:47:45;;;;;;;;;2.67;2.33;;;;;12.17;73.00;99564.31;5036142;28;46333;-70
2022/11/16 00:50:10;;;;;;;;;1.67;1.67;;;;;12.12;72.05;99555.41;5051643;28;46416;-70
2022/11/16 00:52:36;;;;;;;;;2.00;2.00;;;;;12.17;72.38;99572.34;5052880;28;45206;-70
2022/11/16 00:55:01;;;;;;;;;2.67;1.33;;;;;12.11;72.91;99556.28;5068367;28;45022;-69
2022/11/16 00:57:26;;;;;;;;;3.33;2.00;;;;;12.12;72.94;99560.75;5051934;28;47526;-71
2022/11/16 00:59:52;;;;;;;;;1.67;1.67;;;;;12.23;72.82;99577.72;5058404;28;45529;-70
2022/11/16 01:02:17;;;;;;;;;4.67;1.00;;;;;12.22;72.37;99577.72;5056800;28;45374;-70
2022/11/16 01:04:42;;;;;;;;;3.00;2.00;;;;;12.12;72.85;99556.28;5036322;28;45367;-69
2022/11/16 01:07:08;;;;;;;;;2.00;2.00;;;;;12.21;72.63;99576.84;5056398;28;45375;-70
2022/11/16 01:09:33;;;;;;;;;1.00;1.00;;;;;12.11;73.29;99562.53;5058986;28;45307;-70
2022/11/16 01:12:09;;;;;;;;;2.00;1.67;;;;;12.14;72.12;99572.34;5053904;28;45613;-71
2022/11/16 01:14:39;;;;;;;;;6.00;2.33;;;;;12.21;72.62;99583.94;5035494;28;45267;-70
2022/11/16 01:17:05;;;;;;;;;1.00;1.00;;;;;12.22;72.15;99581.28;5051529;28;45179;-69
2022/11/16 01:19:30;;;;;;;;;2.33;2.00;;;;;12.21;72.63;99568.81;5040402;28;45409;-70
2022/11/16 01:21:56;;;;;;;;;3.67;1.00;;;;;12.27;72.32;99571.47;5062288;28;44943;-70
2022/11/16 01:24:23;;;;;;;;;2.00;1.33;;;;;12.27;72.17;99562.53;5042052;28;45210;-71
2022/11/16 01:26:48;;;;;;;;;4.00;2.67;;;;;12.26;72.03;99553.63;5056490;28;46386;-70
2022/11/16 01:29:15;;;;;;;;;1.67;1.00;;;;;12.31;71.57;99567.03;5064084;28;50139;-70
2022/11/16 01:31:40;;;;;;;;;4.00;1.33;;;;;12.31;72.06;99567.03;5034509;28;45168;-70
2022/11/16 01:34:05;;;;;;;;;1.67;1.67;;;;;12.19;71.60;99559.84;5057940;28;45172;-70
2022/11/16 01:36:32;;;;;;;;;5.33;1.00;;;;;12.11;71.88;99549.16;5053983;28;45697;-71
2022/11/16 01:38:57;;;;;;;;;0.00;0.00;;;;;11.93;71.15;99527.72;5054618;28;44900;-70
2022/11/16 01:41:24;;;;;;;;;2.33;1.00;;;;;12.20;71.26;99571.47;5028768;28;45288;-70
2022/11/16 01:44:00;;;;;;;;;6.33;2.00;;;;;12.11;71.01;99564.31;5042278;28;45012;-70
2022/11/16 01:46:26;;;;;;;;;0.67;0.67;;;;;12.21;71.06;99578.59;5057590;28;45132;-70
2022/11/16 01:49:05;;;;;;;;;1.67;0.00;;;;;12.10;71.32;99554.50;5068230;28;45150;-70
2022/11/16 01:51:33;;;;;;;;;2.33;1.00;;;;;12.12;70.73;99553.59;5056801;28;45086;-70
2022/11/16 01:54:01;;;;;;;;;1.00;1.00;;;;;12.08;71.13;99541.13;5054897;28;45226;-70
2022/11/16 01:56:30;;;;;;;;;3.00;2.00;;;;;12.22;70.86;99567.00;5063791;28;45971;-70
2022/11/16 01:58:56;;;;;;;;;2.33;1.00;;;;;12.04;70.38;99539.31;5055065;28;45280;-70
2022/11/16 02:01:22;;;;;;;;;2.33;0.00;;;;;12.10;70.84;99566.09;5050107;28;45287;-69
2022/11/16 02:03:47;;;;;;;;;1.00;1.00;;;;;12.09;71.61;99572.38;5060459;28;45249;-70
2022/11/16 02:06:29;;;;;;;;;3.67;1.00;;;;;12.09;70.46;99568.78;5042287;28;46037;-69
2022/11/16 02:12:13;;;;;;;;;2.00;1.00;;;;;12.05;71.49;99572.34;5036015;28;45010;-71
2022/11/16 02:14:57;;;;;;;;;2.00;2.00;;;;;12.04;70.99;99565.19;5057029;28;45737;-70
2022/11/16 02:17:30;;;;;;;;;3.00;1.33;;;;;12.05;70.83;99567.00;5060639;28;45683;-70
2022/11/16 02:20:32;;;;;;;;;1.00;1.00;;;;;11.95;70.96;99564.31;5037773;28;46237;-70
2022/11/16 02:23:03;;;;;;;;;2.33;1.00;;;;;12.02;70.88;99567.88;5065791;28;45150;-70
2022/11/16 02:25:31;;;;;;;;;3.00;2.67;;;;;12.04;71.17;99567.88;5063140;28;45156;-70
2022/11/16 02:28:25;;;;;;;;;2.00;1.00;;;;;12.01;70.74;99583.94;5058907;28;45930;-70
2022/11/16 02:30:54;;;;;;;;;0.00;0.00;;;;;11.92;70.63;99572.31;5054426;28;45072;-70
2022/11/16 02:33:26;;;;;;;;;0.33;0.33;;;;;11.87;70.65;99568.72;5067595;28;45194;-68
2022/11/16 02:35:59;;;;;;;;;2.00;2.00;;;;;11.28;71.21;99475.84;5038053;28;45102;-69
2022/11/16 02:38:28;;;;;;;;;2.00;0.00;;;;;11.75;71.15;99560.66;5043335;28;47028;-70
2022/11/16 02:41:03;;;;;;;;;1.00;1.00;;;;;11.80;70.66;99574.94;5049968;28;45341;-70
2022/11/16 02:43:41;;;;;;;;;2.33;0.00;;;;;11.72;71.10;99553.50;5054090;28;45049;-70
2022/11/16 02:46:17;;;;;;;;;1.00;1.00;;;;;11.72;71.27;99555.31;5058704;28;45196;-70
2022/11/16 02:48:47;;;;;;;;;4.00;3.00;;;;;11.75;71.15;99558.88;5054789;28;45792;-69
2022/11/16 02:51:14;;;;;;;;;2.67;0.00;;;;;11.72;71.10;99556.19;5032789;28;45745;-70
2022/11/16 02:53:56;;;;;;;;;2.67;0.00;;;;;11.40;71.21;99507.94;5069746;28;45245;-70
2022/11/16 02:56:22;;;;;;;;;1.00;0.00;;;;;11.59;71.07;99538.31;5054811;28;45256;-70
2022/11/16 02:58:48;;;;;;;;;3.67;2.00;;;;;11.64;70.33;99544.56;5066096;28;45844;-70
2022/11/16 03:01:42;;;;;;;;;5.33;0.67;;;;;11.67;71.13;99546.38;5064613;28;45194;-70
2022/11/16 03:04:18;;;;;;;;;1.00;0.67;;;;;11.52;70.81;99523.16;5057589;28;44975;-70
2022/11/16 03:06:47;;;;;;;;;0.33;0.33;;;;;11.64;70.17;99539.22;5060152;28;45195;-70
2022/11/16 03:09:23;;;;;;;;;0.67;0.67;;;;;11.55;70.47;99534.75;5067436;28;45841;-70
2022/11/16 03:11:59;;;;;;;;;0.00;0.00;;;;;11.62;69.89;99535.66;5060547;28;45262;-71
2022/11/16 03:14:34;;;;;;;;;3.00;0.00;;;;;11.57;70.47;99522.28;5046823;28;45151;-70
2022/11/16 03:17:03;;;;;;;;;0.00;0.00;;;;;11.71;70.14;99537.44;5063722;28;45137;-70
2022/11/16 03:19:36;;;;;;;;;1.67;1.00;;;;;11.71;70.43;99526.75;5064027;28;45295;-70
2022/11/16 03:22:47;;;;;;;;;4.00;2.00;;;;;11.72;68.95;99528.56;5052077;28;45051;-71
2022/11/16 03:25:16;;;;;;;;;0.00;0.00;;;;;11.80;69.74;99542.84;5053451;28;45261;-70
2022/11/16 03:27:57;;;;;;;;;2.33;0.00;;;;;11.78;69.68;99541.94;5042827;28;45529;-69
2022/11/16 03:30:25;;;;;;;;;1.67;1.67;;;;;11.71;68.99;99524.97;5058566;28;45164;-70
2022/11/16 03:33:19;;;;;;;;;2.00;2.00;;;;;11.78;69.95;99534.81;5041215;28;44970;-70
2022/11/16 03:35:50;;;;;;;;;1.33;0.67;;;;;11.83;69.38;99532.16;5041694;28;44972;-70
2022/11/16 03:38:19;;;;;;;;;0.00;0.00;;;;;11.77;69.68;99516.94;5077631;28;45032;-71
2022/11/16 03:40:46;;;;;;;;;0.00;0.00;;;;;11.24;69.30;99421.47;5041029;28;47239;-70
2022/11/16 03:43:13;;;;;;;;;0.00;0.00;;;;;11.74;69.08;99516.06;5076746;28;45097;-70
2022/11/16 03:45:39;;;;;;;;;5.00;1.33;;;;;11.72;68.96;99512.50;5053407;28;44943;-70
2022/11/16 03:48:06;;;;;;;;;1.00;1.00;;;;;11.72;69.27;99509.81;5056911;28;44997;-69
2022/11/16 03:50:31;;;;;;;;;2.00;0.00;;;;;11.68;68.91;99503.59;5074582;27;47502;-71
2022/11/16 03:52:57;;;;;;;;;1.00;1.00;;;;;11.76;69.08;99503.56;5040922;28;45112;-71
2022/11/16 03:55:22;;;;;;;;;0.00;0.00;;;;;11.84;68.48;99519.66;5039612;28;44964;-70
2022/11/16 03:57:47;;;;;;;;;0.00;0.00;;;;;11.79;68.82;99500.91;5043426;28;45192;-68
2022/11/16 04:00:13;;;;;;;;;4.67;1.33;;;;;11.88;69.31;99510.72;5045277;28;45588;-70
2022/11/16 04:02:38;;;;;;;;;2.00;0.67;;;;;11.82;68.93;99500.91;5047241;28;45360;-69
2022/11/16 04:24:32;;;;;;;;;3.67;0.33;;;;;11.70;69.20;99490.22;5058881;28;45050;-69
2022/11/16 04:29:48;;;;;;;;;3.00;0.00;;;;;11.55;69.85;99469.63;5067562;28;45024;-69
2022/11/16 04:37:48;;;;;;;;;0.67;0.67;;;;;11.62;70.37;99488.38;5054898;28;45147;-70
2022/11/16 04:40:24;;;;;;;;;2.00;1.00;;;;;11.65;70.15;99492.88;5055009;28;45058;-70
2022/11/16 04:42:58;;;;;;;;;3.00;1.67;;;;;11.63;70.34;99478.56;5061616;28;45223;-70
2022/11/16 04:48:10;;;;;;;;;2.00;0.00;;;;;11.77;69.82;99486.63;5057920;28;45123;-71
2022/11/16 04:50:36;;;;;;;;;0.00;0.00;;;;;11.65;70.48;99471.47;5057443;28;45176;-70
2022/11/16 04:53:02;;;;;;;;;4.00;2.00;;;;;11.76;69.83;99495.53;5039321;28;45756;-70
2022/11/16 04:55:28;;;;;;;;;1.00;1.00;;;;;11.75;70.07;99481.28;5057539;28;45563;-70
2022/11/16 04:57:53;;;;;;;;;4.00;1.00;;;;;11.75;70.29;99483.06;5067195;28;45373;-71
2022/11/16 05:00:19;;;;;;;;;1.00;1.00;;;;;11.74;70.54;99487.50;5066353;28;44937;-69
2022/11/16 05:02:44;;;;;;;;;2.67;1.00;;;;;11.72;69.94;99478.59;5064213;28;45495;-71
2022/11/16 05:05:10;;;;;;;;;3.00;1.33;;;;;11.72;70.58;99483.94;5062249;28;45163;-69
2022/11/16 05:07:35;;;;;;;;;2.00;0.00;;;;;11.59;71.07;99460.75;5063626;28;45109;-70
2022/11/16 05:10:02;;;;;;;;;3.00;1.00;;;;;11.60;71.60;99468.78;5043657;28;45128;-69
2022/11/16 05:12:28;;;;;;;;;1.00;1.00;;;;;11.61;71.14;99457.19;5037964;28;47442;-71
2022/11/16 05:14:55;;;;;;;;;2.67;1.00;;;;;11.61;71.07;99475.00;5037502;28;45189;-70
2022/11/16 05:17:21;;;;;;;;;1.33;0.00;;;;;11.66;71.18;99478.59;5060932;28;45068;-69
2022/11/16 05:22:31;;;;;;;;;1.33;1.33;;;;;11.64;72.66;99484.84;5068663;28;45042;-70
2022/11/16 05:24:56;;;;;;;;;5.67;4.00;;;;;11.59;72.35;99466.97;5057241;28;45088;-70
2022/11/16 05:27:23;;;;;;;;;7.67;2.00;;;;;11.73;72.06;99484.84;5061553;28;45119;-69
2022/11/16 05:29:48;;;;;;;;;4.67;1.00;;;;;11.74;71.02;99483.94;5057746;28;44885;-69
2022/11/16 05:32:14;;;;;;;;;2.00;2.00;;;;;11.75;71.28;99477.72;5059923;28;45292;-72
2022/11/16 05:34:39;;;;;;;;;3.67;1.00;;;;;11.72;72.23;99470.56;5056532;28;45621;-70
2022/11/16 05:37:05;;;;;;;;;2.00;1.00;;;;;11.61;71.48;99458.97;5036254;28;45320;-70
2022/11/16 05:39:30;;;;;;;;;2.00;2.00;;;;;11.52;71.46;99440.25;5056044;28;45221;-70
2022/11/16 05:41:56;;;;;;;;;3.33;0.67;;;;;11.71;72.20;99474.13;5036983;28;46863;-69
2022/11/16 05:44:23;;;;;;;;;4.00;1.00;;;;;11.65;71.89;99460.75;5053313;28;44959;-71
2022/11/16 05:46:48;;;;;;;;;4.00;4.00;;;;;11.69;71.35;99459.88;5054439;28;44991;-70
2022/11/16 05:49:14;;;;;;;;;3.00;1.00;;;;;11.58;72.57;99445.56;5077942;27;45146;-69
2022/11/16 05:51:42;;;;;;;;;4.00;2.00;;;;;11.61;72.04;99456.28;5061747;28;45210;-70
2022/11/16 05:54:12;;;;;;;;;1.00;1.00;;;;;11.64;71.87;99469.66;5035035;28;45405;-69
2022/11/16 05:56:37;;;;;;;;;2.33;1.33;;;;;11.51;71.78;99450.03;5081294;28;45030;-70
2022/11/16 05:59:02;;;;;;;;;3.00;1.00;;;;;11.53;72.75;99450.03;5035063;28;45207;-69
2022/11/16 06:01:28;;;;;;;;;1.00;1.00;;;;;11.55;72.18;99451.84;5040735;28;47424;-71
2022/11/16 06:03:53;;;;;;;;;1.33;1.00;;;;;11.58;72.84;99453.59;5063633;28;45124;-70
2022/11/16 06:06:19;;;;;;;;;2.33;2.00;;;;;11.65;72.70;99470.56;5053465;28;45589;-71
2022/11/16 06:08:45;;;;;;;;;2.00;2.00;;;;;11.55;72.60;99446.47;5066035;28;45404;-71
2022/11/16 06:11:11;;;;;;;;;4.00;3.00;;;;;11.60;72.96;99465.22;5034642;28;47658;-70
2022/11/16 06:13:36;;;;;;;;;2.67;1.00;;;;;11.64;72.82;99479.50;5040761;28;45107;-70
2022/11/16 06:16:02;;;;;;;;;6.67;2.00;;;;;11.65;72.63;99475.91;5045516;28;45010;-70
2022/11/16 06:18:28;;;;;;;;;5.00;5.00;;;;;11.67;73.11;99475.03;5053850;28;45042;-69
2022/11/16 06:20:53;;;;;;;;;2.33;1.67;;;;;11.66;73.63;99478.59;5035398;28;45910;-71
2022/11/16 06:23:18;;;;;;;;;2.00;1.33;;;;;11.56;72.92;99461.63;5066201;28;45461;-69
2022/11/16 06:25:44;;;;;;;;;2.00;1.00;;;;;11.67;72.97;99477.69;5039807;28;45190;-70
2022/11/16 06:28:10;;;;;;;;;1.33;1.33;;;;;11.58;72.51;99466.97;5057508;28;45040;-70
2022/11/16 06:30:39;;;;;;;;;1.00;1.00;;;;;11.59;73.69;99464.31;5066582;28;46637;-69
2022/11/16 06:33:05;;;;;;;;;8.00;3.00;;;;;11.65;72.85;99471.47;5059454;28;45637;-70
2022/11/16 06:35:30;;;;;;;;;3.67;1.00;;;;;11.65;72.98;99471.47;5040781;28;45592;-71
2022/11/16 06:37:56;;;;;;;;;2.00;2.00;;;;;11.69;73.05;99467.00;5055451;28;44971;-71
2022/11/16 06:40:22;;;;;;;;;1.33;1.00;;;;;11.70;73.27;99468.81;5055044;28;45552;-70
2022/11/16 06:42:47;;;;;;;;;6.67;4.33;;;;;11.71;72.84;99470.56;5056082;28;45470;-71
2022/11/16 06:45:12;;;;;;;;;4.00;1.00;;;;;11.55;72.49;99457.19;5057575;28;45194;-72
2022/11/16 06:47:38;;;;;;;;;4.67;3.00;;;;;11.41;72.38;99427.72;5038217;28;45081;-71
2022/11/16 06:50:03;;;;;;;;;2.67;1.00;;;;;11.63;72.08;99457.16;5058181;28;45729;-71
2022/11/16 06:52:29;;;;;;;;;4.00;2.00;;;;;11.68;73.30;99465.22;5055863;28;45080;-71
2022/11/16 06:54:54;;;;;;;;;4.67;4.00;;;;;11.70;72.88;99467.00;5056264;28;45111;-70
2022/11/16 06:57:19;;;;;;;;;3.00;3.00;;;;;11.67;72.47;99461.66;5054812;28;45184;-71
2022/11/16 06:59:45;;;;;;;;;6.00;2.00;;;;;11.68;72.11;99465.22;5055716;28;45560;-69
2022/11/16 07:02:11;;;;;;;;;3.67;3.00;;;;;11.77;73.01;99475.94;5056645;28;45286;-70
2022/11/16 07:04:36;;;;;;;;;4.00;4.00;;;;;11.79;73.07;99471.47;5038958;28;45361;-70
2022/11/16 07:07:02;;;;;;;;;1.00;1.00;;;;;11.70;72.30;99452.75;5049131;28;45163;-70
2022/11/16 07:09:27;;;;;;;;;6.00;4.00;;;;;11.83;73.38;99465.25;5062595;28;45520;-70
2022/11/16 07:11:53;;;;;;;;;6.00;3.00;;;;;11.94;72.63;99473.28;5054727;28;45387;-70
2022/11/16 07:14:18;;;;;;;;;3.00;1.00;;;;;11.93;72.09;99476.88;5063058;28;44995;-70
2022/11/16 07:16:44;;;;;;;;;2.00;2.00;;;;;11.98;72.51;99480.44;5021492;28;45235;-70
2022/11/16 07:19:09;;;;;;;;;3.00;2.00;;;;;11.98;71.63;99486.69;5054059;28;46167;-70
2022/11/16 07:21:36;;;;;;;;;4.33;3.00;;;;;11.91;71.58;99466.16;5051333;28;45053;-70
2022/11/16 07:24:02;;;;;;;;;6.50;5.25;;;;;12.04;72.41;99487.56;5052688;28;45122;-70
2022/11/16 07:26:30;;;;;;;;;9.25;7.50;;;;;11.88;72.65;99443.81;5040445;28;45238;-72
2022/11/16 07:28:59;;;;;;;;;3.00;3.00;;;;;12.10;72.37;99484.91;5062284;28;45784;-70
2022/11/16 07:31:25;;;;;;;;;4.00;2.33;;;;;12.09;72.47;99486.69;5058344;28;45489;-71
2022/11/16 07:33:51;;;;;;;;;2.00;2.00;;;;;12.07;71.91;99476.88;5060999;28;45266;-72
2022/11/16 07:36:17;;;;;;;;;2.67;2.00;;;;;11.90;72.56;99440.25;5055736;28;45004;-70
2022/11/16 07:38:42;;;;;;;;;3.67;3.33;;;;;12.15;71.99;99475.09;5036528;28;46825;-70
2022/11/16 07:41:16;;;;;;;;;7.00;4.33;;;;;12.15;72.60;99486.66;5032210;28;45238;-70
2022/11/16 07:43:42;;;;;;;;;2.00;2.00;;;;;12.08;72.35;99463.47;5057900;28;45221;-71
2022/11/16 07:46:12;;;;;;;;;8.00;3.00;;;;;12.16;72.73;99474.19;5059113;28;45272;-70
2022/11/16 07:48:38;;;;;;;;;37.00;32.00;;;;;12.21;73.03;99483.13;5054710;28;45993;-71
2022/11/16 07:51:06;;;;;;;;;6.00;3.67;;;;;12.21;72.98;99475.09;5053192;28;45234;-70
2022/11/16 07:53:32;;;;;;;;;4.33;3.67;;;;;12.23;72.42;99475.97;5034547;28;45040;-70
2022/11/16 07:55:58;;;;;;;;;15.75;15.75;;;;;12.22;73.24;99467.94;5052949;28;45303;-75
2022/11/16 07:58:24;;;;;;;;;4.67;3.67;;;;;12.14;72.62;99433.13;5044651;28;46269;-70
2022/11/16 08:00:49;;;;;;;;;6.00;3.33;;;;;12.27;71.65;99452.75;5048100;28;45414;-73
2022/11/16 08:03:15;;;;;;;;;11.00;6.00;;;;;12.42;71.84;99476.81;5054013;28;45181;-71
2022/11/16 08:05:41;;;;;;;;;3.00;3.00;;;;;12.47;71.60;99477.72;5057656;28;45341;-73
2022/11/16 08:08:07;;;;;;;;;2.00;2.00;;;;;12.41;71.69;99463.47;5057964;28;45792;-76
2022/11/16 08:10:32;;;;;;;;;8.00;3.33;;;;;12.43;71.47;99454.50;5063293;28;45001;-74
2022/11/16 08:12:58;;;;;;;;;5.33;3.00;;;;;12.16;72.03;99396.56;5054721;28;45359;-73
2022/11/16 08:15:24;;;;;;;;;3.33;3.33;;;;;12.69;72.19;99480.34;5049570;28;45556;-77
2022/11/16 08:17:52;;;;;;;;;10.67;5.00;;;;;12.58;71.34;99464.28;5043863;28;45019;-77
2022/11/16 08:20:19;;;;;;;;;7.00;3.33;;;;;12.76;71.68;99481.22;5060133;28;45325;-74
2022/11/16 08:22:44;;;;;;;;;8.33;6.67;;;;;12.78;71.63;99476.75;5060742;28;45121;-75
2022/11/16 08:25:11;;;;;;;;;7.67;4.00;;;;;12.84;71.12;99479.41;5060886;28;45145;-74
2022/11/16 08:27:36;;;;;;;;;3.33;3.33;;;;;12.79;71.31;99459.78;5060904;28;45542;-75
2022/11/16 08:30:03;;;;;;;;;3.00;3.00;;;;;12.61;71.01;99440.19;5042762;28;45097;-74
2022/11/16 08:32:29;;;;;;;;;10.00;3.33;;;;;12.85;71.18;99474.06;5058301;28;45188;-77
2022/11/16 08:34:55;;;;;;;;;5.50;3.00;;;;;12.94;70.67;99485.66;5065337;28;45130;-73
2022/11/16 08:37:21;;;;;;;;;6.00;5.67;;;;;12.94;70.91;99478.47;5062746;28;45537;-72
2022/11/16 08:39:47;;;;;;;;;7.67;3.00;;;;;12.79;71.20;99454.44;5058334;28;45353;-78
2022/11/16 08:42:12;;;;;;;;;5.67;4.00;;;;;12.89;71.38;99458.84;5057134;28;45317;-76
2022/11/16 08:44:38;;;;;;;;;29.75;22.75;;;;;12.97;70.90;99457.03;5037164;28;45316;-75
2022/11/16 08:47:03;;;;;;;;;9.33;6.67;;;;;13.00;71.03;99457.03;5031598;28;45607;-75
2022/11/16 08:49:29;;;;;;;;;5.00;4.67;;;;;13.07;71.38;99472.16;5025585;28;45578;-76
2022/11/16 08:51:54;;;;;;;;;3.00;3.00;;;;;13.00;71.40;99453.44;5056512;28;45114;-75
2022/11/16 08:54:20;;;;;;;;;9.00;7.33;;;;;12.91;72.44;99443.63;5048677;28;45326;-73
2022/11/16 08:56:45;;;;;;;;;2.67;1.00;;;;;12.91;72.30;99440.97;5030676;28;47439;-75
2022/11/16 08:59:11;;;;;;;;;9.00;5.67;;;;;12.91;72.67;99438.28;5050007;28;45427;-76
2022/11/16 09:01:37;;;;;;;;;6.67;5.00;;;;;12.97;72.26;99448.97;5049319;28;46329;-76
2022/11/16 09:04:03;;;;;;;;;2.00;2.00;;;;;13.04;72.11;99448.03;5037115;28;45258;-74
2022/11/16 09:06:28;;;;;;;;;6.33;3.67;;;;;13.07;72.22;99450.72;5045666;28;45327;-73
2022/11/16 09:08:54;;;;;;;;;2.00;2.00;;;;;13.08;72.81;99455.19;5033102;28;45306;-77
2022/11/16 09:11:22;;;;;;;;;5.33;3.67;;;;;13.13;72.64;99451.59;5052061;28;45179;-74
2022/11/16 09:13:49;;;;;;;;;6.33;4.67;;;;;13.15;73.31;99447.09;5045014;28;45461;-76
2022/11/16 09:16:16;;;;;;;;;6.00;3.00;;;;;13.22;72.74;99446.19;5048162;28;46319;-76
2022/11/16 09:18:43;;;;;;;;;7.33;4.33;;;;;13.18;72.90;99418.50;5057321;28;45112;-78
2022/11/16 09:21:11;;;;;;;;;13.00;10.25;;;;;13.24;72.05;99439.91;5038980;28;45040;-77
2022/11/16 09:23:37;;;;;;;;;3.67;3.67;;;;;13.24;72.39;99428.28;5055297;28;44992;-76
2022/11/16 09:26:04;;;;;;;;;5.67;5.67;;;;;13.41;71.17;99457.72;5061095;28;45830;-76
2022/11/16 09:28:30;;;;;;;;;8.33;3.00;;;;;13.45;71.86;99457.69;5058150;28;45359;-75
2022/11/16 09:31:00;;;;;;;;;3.67;3.00;;;;;13.51;71.23;99453.19;5057793;28;45350;-75
2022/11/16 09:33:28;;;;;;;;;9.00;5.33;;;;;13.57;71.69;99450.47;5032467;28;45646;-74
2022/11/16 09:35:54;;;;;;;;;11.67;5.00;;;;;13.15;71.05;99366.66;5037770;28;47662;-77
2022/11/16 09:38:19;;;;;;;;;10.33;5.00;;;;;13.62;70.85;99448.66;5054545;28;45027;-73
2022/11/16 09:40:46;;;;;;;;;3.67;3.00;;;;;13.67;70.86;99456.66;5052956;28;45157;-76
2022/11/16 09:43:27;;;;;;;;;8.67;4.00;;;;;13.49;70.52;99420.13;5039030;28;44997;-76
2022/11/16 09:46:01;;;;;;;;;5.00;3.33;;;;;13.63;71.10;99434.34;5047950;28;46164;-76
2022/11/16 09:48:30;;;;;;;;;2.00;2.00;;;;;13.68;70.94;99431.59;5058828;28;45110;-75
2022/11/16 09:51:00;;;;;;;;;5.00;4.00;;;;;13.67;70.77;99421.78;5038879;28;45098;-75
2022/11/16 09:53:45;;;;;;;;;1.67;1.67;;;;;13.78;70.37;99423.47;5050383;28;45116;-73
2022/11/16 09:56:17;;;;;;;;;11.00;5.33;;;;;13.81;70.19;99433.31;5057764;28;45628;-75
2022/11/16 09:58:56;;;;;;;;;8.00;6.00;;;;;13.34;70.27;99362.97;5056069;28;45321;-76
2022/11/16 10:01:26;;;;;;;;;4.67;3.00;;;;;13.78;70.90;99430.66;5049946;28;45202;-75
2022/11/16 10:04:00;;;;;;;;;3.33;3.33;;;;;13.81;70.33;99427.94;5052112;28;45180;-74
2022/11/16 10:07:05;;;;;;;;;8.00;6.00;;;;;13.91;70.70;99423.34;5044446;28;46739;-74
2022/11/16 10:09:31;;;;;;;;;4.00;2.00;;;;;13.91;69.47;99415.31;5076898;22;45127;-71
2022/11/16 10:12:02;;;;;;;;;6.33;2.00;;;;;13.95;69.21;99428.69;5073930;28;45107;-71
2022/11/16 10:14:50;;;;;;;;;2.33;1.67;;;;;13.98;69.62;99428.66;5075028;28;45115;-69
2022/11/16 10:17:22;;;;;;;;;6.00;2.67;;;;;14.01;69.20;99435.81;5061957;27;45532;-68
2022/11/16 10:20:01;;;;;;;;;2.33;2.33;;;;;13.93;69.55;99413.50;5049376;28;45118;-70
2022/11/16 10:22:48;;;;;;;;;2.00;2.00;;;;;14.06;68.79;99444.72;5072685;28;45095;-71
2022/11/16 10:25:22;;;;;;;;;7.33;3.00;;;;;14.07;68.86;99440.22;5065532;28;45333;-71
2022/11/16 10:28:03;;;;;;;;;4.00;2.00;;;;;14.10;68.50;99443.78;5055474;28;45636;-70
2022/11/16 10:30:38;;;;;;;;;30.75;20.75;;;;;14.10;69.28;99437.53;5073710;28;45009;-69
2022/11/16 10:33:09;;;;;;;;;2.33;2.33;;;;;14.00;68.74;99417.91;5073968;28;44934;-70
2022/11/16 10:35:52;;;;;;;;;3.33;3.33;;;;;14.19;67.92;99454.44;5051581;28;45250;-70
2022/11/16 10:38:26;;;;;;;;;3.00;1.00;;;;;14.16;67.86;99432.97;5065621;28;47113;-70
2022/11/16 10:41:00;;;;;;;;;5.00;3.00;;;;;14.16;67.53;99430.31;5071980;28;45084;-71
2022/11/16 10:43:29;;;;;;;;;3.00;3.00;;;;;14.22;67.08;99441.88;5071405;28;45118;-71
2022/11/16 10:46:18;;;;;;;;;3.00;3.00;;;;;14.22;67.17;99439.19;5054350;28;45165;-70
2022/11/16 10:48:56;;;;;;;;;5.67;3.00;;;;;14.19;66.52;99421.34;5054271;28;47515;-69
2022/11/16 10:51:22;;;;;;;;;1.33;1.33;;;;;14.14;66.24;99418.69;5069837;28;45061;-69
2022/11/16 10:53:48;;;;;;;;;3.00;3.00;;;;;14.15;66.61;99420.44;5045670;28;45435;-70
2022/11/16 10:56:20;;;;;;;;;3.00;3.00;;;;;14.16;67.08;99400.75;5061230;28;45615;-69
2022/11/16 10:58:53;;;;;;;;;1.00;1.00;;;;;14.11;66.08;99375.75;5064405;28;45750;-69
2022/11/16 11:01:37;;;;;;;;;5.00;2.33;;;;;14.23;66.17;99395.31;5038354;28;45472;-70
2022/11/16 11:04:22;;;;;;;;;2.00;2.00;;;;;14.26;65.87;99392.63;5056035;28;45449;-70
2022/11/16 11:06:53;;;;;;;;;5.33;2.67;;;;;14.28;66.13;99394.34;5055866;28;45632;-70
2022/11/16 11:09:25;;;;;;;;;3.00;1.33;;;;;14.32;65.36;99392.53;5053920;28;47023;-70
2022/11/16 11:15:09;;;;;;;;;5.00;5.00;;;;;14.42;65.29;99371.81;5054663;28;45459;-69
2022/11/16 11:17:36;;;;;;;;;5.00;3.33;;;;;14.42;65.05;99380.78;5054158;28;45354;-70
2022/11/16 11:20:18;;;;;;;;;9.00;6.00;;;;;14.28;65.45;99353.19;5016847;28;47021;-69
2022/11/16 11:22:56;;;;;;;;;1.00;1.00;;;;;14.45;64.89;99366.41;5052146;28;45526;-69
2022/11/16 11:25:37;;;;;;;;;6.00;5.33;;;;;14.50;64.69;99370.84;5053028;28;45474;-70
2022/11/16 11:28:15;;;;;;;;;5.67;3.33;;;;;14.57;64.26;99369.84;5056747;28;45423;-69
2022/11/16 11:30:50;;;;;;;;;8.33;6.00;;;;;14.59;64.06;99367.19;5053261;28;45499;-71
2022/11/16 11:33:17;;;;;;;;;3.33;3.33;;;;;14.48;64.42;99329.63;5021520;28;45459;-71
2022/11/16 11:35:43;;;;;;;;;4.33;3.00;;;;;14.52;63.32;99339.47;5056751;28;45497;-71
2022/11/16 11:38:13;;;;;;;;;6.67;5.00;;;;;14.34;63.77;99297.56;5056336;28;45493;-70
2022/11/16 11:40:55;;;;;;;;;7.67;6.00;;;;;14.78;63.25;99353.50;5056512;28;45473;-72
2022/11/16 11:43:23;;;;;;;;;6.67;4.33;;;;;14.50;62.91;99300.97;5056397;28;45387;-71
2022/11/16 11:45:53;;;;;;;;;5.33;5.00;;;;;14.86;62.64;99365.03;5056217;28;45366;-69
2022/11/16 11:48:28;;;;;;;;;3.33;3.33;;;;;14.85;62.61;99348.03;5037658;28;45550;-68
2022/11/16 11:51:14;;;;;;;;;11.67;5.33;;;;;14.90;62.85;99345.28;5055757;28;45913;-69
2022/11/16 11:53:57;;;;;;;;;8.00;4.00;;;;;14.91;62.67;99347.94;5056090;28;45391;-70
2022/11/16 11:56:24;;;;;;;;;4.00;4.00;;;;;14.86;62.32;99338.16;5056000;28;45571;-70
2022/11/16 11:58:51;;;;;;;;;4.00;3.00;;;;;14.90;62.48;99340.78;5056003;28;45483;-69
2022/11/16 12:01:36;;;;;;;;;7.00;5.33;;;;;14.93;62.59;99348.81;5055332;28;45645;-70
2022/11/16 12:04:32;;;;;;;;;10.00;5.00;;;;;14.66;62.60;99295.41;5050881;28;45437;-70
2022/11/16 12:07:23;;;;;;;;;6.00;5.33;;;;;14.89;62.03;99328.22;5055962;28;45477;-71
2022/11/16 12:09:59;;;;;;;;;6.00;3.00;;;;;14.93;61.16;99342.53;5055329;28;45370;-70
2022/11/16 12:12:39;;;;;;;;;5.67;5.33;;;;;14.90;61.17;99339.91;5054988;28;45933;-70
2022/11/16 12:15:20;;;;;;;;;9.00;6.33;;;;;14.90;61.51;99329.16;5051915;28;45420;-71
2022/11/16 12:18:11;;;;;;;;;4.67;4.33;;;;;14.91;61.29;99339.88;5049730;28;45473;-70
2022/11/16 12:21:12;;;;;;;;;4.67;3.67;;;;;14.89;61.10;99325.53;5050013;28;45502;-69
2022/11/16 12:24:16;;;;;;;;;10.33;5.67;;;;;14.97;61.29;99329.94;5022764;28;48582;-69